sensor_id;sensor_type;location;lat;lon;timestamp;P1;durP1;ratioP1;P2;durP2;ratioP2
82793;SDS011;72533;52.852;6.176;2024-01-27T00:02:10;7.38;;;3.45;;
82793;SDS011;72533;52.852;6.176;2024-01-27T00:04:36;7.77;;;4.90;;
82793;SDS011;72533;52.852;6.176;2024-01-27T00:07:02;19.85;;;3.83;;
82793;SDS011;72533;52.852;6.176;2024-01-27T00:09:27;6.33;;;3.33;;
82793;SDS011;72533;52.852;6.176;2024-01-27T00:11:52;9.37;;;5.20;;
82793;SDS011;72533;52.852;6.176;2024-01-27T00:14:17;8.27;;;2.43;;
82793;SDS011;72533;52.852;6.176;2024-01-27T00:16:42;5.40;;;2.10;;
82793;SDS011;72533;52.852;6.176;2024-01-27T00:19:07;13.83;;;7.60;;
82793;SDS011;72533;52.852;6.176;2024-01-27T00:21:33;7.70;;;3.53;;
82793;SDS011;72533;52.852;6.176;2024-01-27T00:23:58;13.30;;;3.20;;
82793;SDS011;72533;52.852;6.176;2024-01-27T00:26:26;11.63;;;3.33;;
82793;SDS011;72533;52.852;6.176;2024-01-27T00:28:51;10.57;;;3.45;;
82793;SDS011;72533;52.852;6.176;2024-01-27T00:31:16;8.63;;;3.43;;
82793;SDS011;72533;52.852;6.176;2024-01-27T00:33:41;8.77;;;2.83;;
82793;SDS011;72533;52.852;6.176;2024-01-27T00:36:07;10.53;;;3.00;;
82793;SDS011;72533;52.852;6.176;2024-01-27T00:38:32;11.23;;;2.67;;
82793;SDS011;72533;52.852;6.176;2024-01-27T00:40:57;8.53;;;3.40;;
82793;SDS011;72533;52.852;6.176;2024-01-27T00:43:22;7.53;;;3.17;;
82793;SDS011;72533;52.852;6.176;2024-01-27T00:45:48;7.25;;;3.45;;
82793;SDS011;72533;52.852;6.176;2024-01-27T00:48:13;13.53;;;4.63;;
82793;SDS011;72533;52.852;6.176;2024-01-27T00:50:38;4.77;;;1.83;;
82793;SDS011;72533;52.852;6.176;2024-01-27T00:53:03;11.77;;;3.27;;
82793;SDS011;72533;52.852;6.176;2024-01-27T00:55:28;13.20;;;3.93;;
82793;SDS011;72533;52.852;6.176;2024-01-27T00:57:54;8.63;;;2.77;;
82793;SDS011;72533;52.852;6.176;2024-01-27T01:00:19;9.52;;;3.40;;
82793;SDS011;72533;52.852;6.176;2024-01-27T01:02:44;10.37;;;3.33;;
82793;SDS011;72533;52.852;6.176;2024-01-27T01:05:10;6.90;;;2.57;;
82793;SDS011;72533;52.852;6.176;2024-01-27T01:07:35;7.78;;;3.22;;
82793;SDS011;72533;52.852;6.176;2024-01-27T01:10:00;8.83;;;3.17;;
82793;SDS011;72533;52.852;6.176;2024-01-27T01:12:25;13.03;;;5.40;;
82793;SDS011;72533;52.852;6.176;2024-01-27T01:14:51;14.37;;;5.60;;
82793;SDS011;72533;52.852;6.176;2024-01-27T01:17:16;6.20;;;3.40;;
82793;SDS011;72533;52.852;6.176;2024-01-27T01:19:42;11.30;;;3.47;;
82793;SDS011;72533;52.852;6.176;2024-01-27T01:22:07;11.97;;;2.47;;
82793;SDS011;72533;52.852;6.176;2024-01-27T01:24:32;14.25;;;2.25;;
82793;SDS011;72533;52.852;6.176;2024-01-27T01:26:58;9.35;;;2.88;;
82793;SDS011;72533;52.852;6.176;2024-01-27T01:29:24;13.43;;;4.13;;
82793;SDS011;72533;52.852;6.176;2024-01-27T01:31:49;8.50;;;4.63;;
82793;SDS011;72533;52.852;6.176;2024-01-27T01:34:14;8.80;;;2.57;;
82793;SDS011;72533;52.852;6.176;2024-01-27T01:36:39;5.70;;;3.87;;
82793;SDS011;72533;52.852;6.176;2024-01-27T01:39:05;10.85;;;4.53;;
82793;SDS011;72533;52.852;6.176;2024-01-27T01:41:31;8.65;;;5.13;;
82793;SDS011;72533;52.852;6.176;2024-01-27T01:43:56;6.63;;;3.00;;
82793;SDS011;72533;52.852;6.176;2024-01-27T01:46:22;6.03;;;2.75;;
82793;SDS011;72533;52.852;6.176;2024-01-27T01:48:49;5.65;;;2.70;;
82793;SDS011;72533;52.852;6.176;2024-01-27T01:51:14;5.10;;;2.27;;
82793;SDS011;72533;52.852;6.176;2024-01-27T01:53:39;11.87;;;2.73;;
82793;SDS011;72533;52.852;6.176;2024-01-27T01:56:05;5.28;;;2.35;;
82793;SDS011;72533;52.852;6.176;2024-01-27T01:58:30;7.85;;;5.20;;
82793;SDS011;72533;52.852;6.176;2024-01-27T02:01:02;5.60;;;2.05;;
82793;SDS011;72533;52.852;6.176;2024-01-27T02:05:52;8.23;;;3.27;;
82793;SDS011;72533;52.852;6.176;2024-01-27T02:08:17;8.27;;;2.47;;
82793;SDS011;72533;52.852;6.176;2024-01-27T02:10:43;6.80;;;2.43;;
82793;SDS011;72533;52.852;6.176;2024-01-27T02:13:15;12.48;;;3.35;;
82793;SDS011;72533;52.852;6.176;2024-01-27T02:15:42;9.98;;;2.60;;
82793;SDS011;72533;52.852;6.176;2024-01-27T02:18:07;5.60;;;2.27;;
82793;SDS011;72533;52.852;6.176;2024-01-27T02:20:33;9.10;;;1.75;;
82793;SDS011;72533;52.852;6.176;2024-01-27T02:22:58;11.27;;;2.27;;
82793;SDS011;72533;52.852;6.176;2024-01-27T02:25:23;8.70;;;2.53;;
82793;SDS011;72533;52.852;6.176;2024-01-27T02:27:48;8.90;;;2.43;;
82793;SDS011;72533;52.852;6.176;2024-01-27T02:30:13;10.07;;;4.17;;
82793;SDS011;72533;52.852;6.176;2024-01-27T02:32:39;7.90;;;2.80;;
82793;SDS011;72533;52.852;6.176;2024-01-27T02:35:04;6.57;;;2.57;;
82793;SDS011;72533;52.852;6.176;2024-01-27T02:37:29;9.52;;;4.55;;
82793;SDS011;72533;52.852;6.176;2024-01-27T02:39:54;12.53;;;3.07;;
82793;SDS011;72533;52.852;6.176;2024-01-27T02:42:20;13.50;;;4.20;;
82793;SDS011;72533;52.852;6.176;2024-01-27T02:44:45;13.67;;;3.10;;
82793;SDS011;72533;52.852;6.176;2024-01-27T02:47:10;5.17;;;2.63;;
82793;SDS011;72533;52.852;6.176;2024-01-27T02:49:35;9.40;;;2.50;;
82793;SDS011;72533;52.852;6.176;2024-01-27T02:52:00;10.43;;;3.90;;
82793;SDS011;72533;52.852;6.176;2024-01-27T02:54:26;9.57;;;4.10;;
82793;SDS011;72533;52.852;6.176;2024-01-27T02:56:52;13.13;;;3.72;;
82793;SDS011;72533;52.852;6.176;2024-01-27T02:59:17;10.03;;;3.40;;
82793;SDS011;72533;52.852;6.176;2024-01-27T03:01:42;9.30;;;3.73;;
82793;SDS011;72533;52.852;6.176;2024-01-27T03:04:07;10.73;;;3.93;;
82793;SDS011;72533;52.852;6.176;2024-01-27T03:06:33;10.50;;;2.70;;
82793;SDS011;72533;52.852;6.176;2024-01-27T03:08:58;10.65;;;4.05;;
82793;SDS011;72533;52.852;6.176;2024-01-27T03:11:23;9.27;;;4.40;;
82793;SDS011;72533;52.852;6.176;2024-01-27T03:13:48;10.73;;;5.73;;
82793;SDS011;72533;52.852;6.176;2024-01-27T03:16:14;8.30;;;2.70;;
82793;SDS011;72533;52.852;6.176;2024-01-27T03:18:39;10.35;;;3.83;;
82793;SDS011;72533;52.852;6.176;2024-01-27T03:21:05;10.30;;;3.13;;
82793;SDS011;72533;52.852;6.176;2024-01-27T03:23:31;5.85;;;2.13;;
82793;SDS011;72533;52.852;6.176;2024-01-27T03:25:56;10.47;;;2.23;;
82793;SDS011;72533;52.852;6.176;2024-01-27T03:28:21;14.40;;;3.53;;
82793;SDS011;72533;52.852;6.176;2024-01-27T03:30:46;10.43;;;2.60;;
82793;SDS011;72533;52.852;6.176;2024-01-27T03:33:12;9.13;;;2.23;;
82793;SDS011;72533;52.852;6.176;2024-01-27T03:35:37;10.25;;;3.40;;
82793;SDS011;72533;52.852;6.176;2024-01-27T03:38:03;8.85;;;3.80;;
82793;SDS011;72533;52.852;6.176;2024-01-27T03:40:28;10.63;;;3.45;;
82793;SDS011;72533;52.852;6.176;2024-01-27T03:42:53;12.40;;;3.23;;
82793;SDS011;72533;52.852;6.176;2024-01-27T03:45:18;8.87;;;2.90;;
82793;SDS011;72533;52.852;6.176;2024-01-27T03:47:44;15.27;;;3.90;;
82793;SDS011;72533;52.852;6.176;2024-01-27T03:50:09;11.83;;;2.67;;
82793;SDS011;72533;52.852;6.176;2024-01-27T03:52:35;7.75;;;2.65;;
82793;SDS011;72533;52.852;6.176;2024-01-27T03:55:00;6.30;;;3.08;;
82793;SDS011;72533;52.852;6.176;2024-01-27T03:57:26;16.53;;;5.23;;
82793;SDS011;72533;52.852;6.176;2024-01-27T03:59:51;9.37;;;3.50;;
82793;SDS011;72533;52.852;6.176;2024-01-27T04:02:16;8.17;;;4.60;;
82793;SDS011;72533;52.852;6.176;2024-01-27T04:04:41;8.53;;;3.53;;
82793;SDS011;72533;52.852;6.176;2024-01-27T04:07:06;9.90;;;3.23;;
82793;SDS011;72533;52.852;6.176;2024-01-27T04:09:32;5.67;;;2.33;;
82793;SDS011;72533;52.852;6.176;2024-01-27T04:11:57;14.07;;;3.57;;
82793;SDS011;72533;52.852;6.176;2024-01-27T04:14:22;13.97;;;4.87;;
82793;SDS011;72533;52.852;6.176;2024-01-27T04:16:47;9.83;;;2.67;;
82793;SDS011;72533;52.852;6.176;2024-01-27T04:19:12;9.73;;;7.97;;
82793;SDS011;72533;52.852;6.176;2024-01-27T04:21:37;7.10;;;2.57;;
82793;SDS011;72533;52.852;6.176;2024-01-27T04:24:03;6.80;;;5.23;;
82793;SDS011;72533;52.852;6.176;2024-01-27T04:26:28;4.97;;;4.30;;
82793;SDS011;72533;52.852;6.176;2024-01-27T04:28:53;12.23;;;4.30;;
82793;SDS011;72533;52.852;6.176;2024-01-27T04:31:18;3.77;;;2.17;;
82793;SDS011;72533;52.852;6.176;2024-01-27T04:33:43;12.37;;;5.13;;
82793;SDS011;72533;52.852;6.176;2024-01-27T04:36:09;6.13;;;4.47;;
82793;SDS011;72533;52.852;6.176;2024-01-27T04:38:35;8.68;;;5.80;;
82793;SDS011;72533;52.852;6.176;2024-01-27T04:41:00;8.98;;;4.38;;
82793;SDS011;72533;52.852;6.176;2024-01-27T04:43:25;7.63;;;3.73;;
82793;SDS011;72533;52.852;6.176;2024-01-27T04:45:51;7.33;;;3.37;;
82793;SDS011;72533;52.852;6.176;2024-01-27T04:48:16;9.83;;;5.57;;
82793;SDS011;72533;52.852;6.176;2024-01-27T04:50:41;19.63;;;4.28;;
82793;SDS011;72533;52.852;6.176;2024-01-27T04:53:06;9.10;;;3.70;;
82793;SDS011;72533;52.852;6.176;2024-01-27T04:55:31;13.33;;;3.87;;
82793;SDS011;72533;52.852;6.176;2024-01-27T04:57:57;12.70;;;3.53;;
82793;SDS011;72533;52.852;6.176;2024-01-27T05:00:23;10.35;;;3.60;;
82793;SDS011;72533;52.852;6.176;2024-01-27T05:02:50;11.18;;;3.75;;
82793;SDS011;72533;52.852;6.176;2024-01-27T05:05:15;12.87;;;3.30;;
82793;SDS011;72533;52.852;6.176;2024-01-27T05:07:40;12.65;;;4.18;;
82793;SDS011;72533;52.852;6.176;2024-01-27T05:10:05;18.97;;;4.60;;
82793;SDS011;72533;52.852;6.176;2024-01-27T05:12:31;7.22;;;2.92;;
82793;SDS011;72533;52.852;6.176;2024-01-27T05:14:56;10.07;;;3.87;;
82793;SDS011;72533;52.852;6.176;2024-01-27T05:17:21;9.10;;;4.83;;
82793;SDS011;72533;52.852;6.176;2024-01-27T05:19:46;6.47;;;4.43;;
82793;SDS011;72533;52.852;6.176;2024-01-27T05:22:12;7.17;;;3.87;;
82793;SDS011;72533;52.852;6.176;2024-01-27T05:24:37;10.60;;;4.80;;
82793;SDS011;72533;52.852;6.176;2024-01-27T05:27:02;8.97;;;5.63;;
82793;SDS011;72533;52.852;6.176;2024-01-27T05:29:27;10.13;;;3.33;;
82793;SDS011;72533;52.852;6.176;2024-01-27T05:31:53;12.30;;;5.23;;
82793;SDS011;72533;52.852;6.176;2024-01-27T05:34:18;12.10;;;2.50;;
82793;SDS011;72533;52.852;6.176;2024-01-27T05:36:43;5.23;;;2.23;;
82793;SDS011;72533;52.852;6.176;2024-01-27T05:39:08;8.57;;;3.87;;
82793;SDS011;72533;52.852;6.176;2024-01-27T05:41:34;10.35;;;3.90;;
82793;SDS011;72533;52.852;6.176;2024-01-27T05:43:59;9.33;;;5.03;;
82793;SDS011;72533;52.852;6.176;2024-01-27T05:46:24;9.43;;;3.43;;
82793;SDS011;72533;52.852;6.176;2024-01-27T05:48:50;10.35;;;3.90;;
82793;SDS011;72533;52.852;6.176;2024-01-27T05:53:43;6.38;;;3.70;;
82793;SDS011;72533;52.852;6.176;2024-01-27T05:56:08;9.80;;;4.20;;
82793;SDS011;72533;52.852;6.176;2024-01-27T05:58:33;9.73;;;7.67;;
82793;SDS011;72533;52.852;6.176;2024-01-27T06:00:59;9.23;;;4.10;;
82793;SDS011;72533;52.852;6.176;2024-01-27T06:03:24;10.45;;;6.03;;
82793;SDS011;72533;52.852;6.176;2024-01-27T06:05:49;10.43;;;4.93;;
82793;SDS011;72533;52.852;6.176;2024-01-27T06:08:15;7.90;;;3.83;;
82793;SDS011;72533;52.852;6.176;2024-01-27T06:10:40;11.40;;;4.33;;
82793;SDS011;72533;52.852;6.176;2024-01-27T06:13:05;7.40;;;2.63;;
82793;SDS011;72533;52.852;6.176;2024-01-27T06:15:30;14.40;;;4.10;;
82793;SDS011;72533;52.852;6.176;2024-01-27T06:17:56;11.38;;;4.50;;
82793;SDS011;72533;52.852;6.176;2024-01-27T06:20:22;10.07;;;4.40;;
82793;SDS011;72533;52.852;6.176;2024-01-27T06:22:47;15.83;;;5.27;;
82793;SDS011;72533;52.852;6.176;2024-01-27T06:25:12;11.20;;;5.37;;
82793;SDS011;72533;52.852;6.176;2024-01-27T06:27:37;10.20;;;4.83;;
82793;SDS011;72533;52.852;6.176;2024-01-27T06:30:03;18.27;;;3.60;;
82793;SDS011;72533;52.852;6.176;2024-01-27T06:32:28;10.90;;;4.43;;
82793;SDS011;72533;52.852;6.176;2024-01-27T06:34:54;19.70;;;4.70;;
82793;SDS011;72533;52.852;6.176;2024-01-27T06:37:19;9.90;;;5.10;;
82793;SDS011;72533;52.852;6.176;2024-01-27T06:39:44;12.10;;;5.67;;
82793;SDS011;72533;52.852;6.176;2024-01-27T06:42:09;11.13;;;4.33;;
82793;SDS011;72533;52.852;6.176;2024-01-27T06:44:34;10.37;;;4.37;;
82793;SDS011;72533;52.852;6.176;2024-01-27T06:47:00;13.37;;;4.67;;
82793;SDS011;72533;52.852;6.176;2024-01-27T06:49:25;9.80;;;4.53;;
82793;SDS011;72533;52.852;6.176;2024-01-27T06:51:50;15.40;;;5.30;;
82793;SDS011;72533;52.852;6.176;2024-01-27T06:54:15;10.73;;;4.67;;
82793;SDS011;72533;52.852;6.176;2024-01-27T06:56:40;11.63;;;5.70;;
82793;SDS011;72533;52.852;6.176;2024-01-27T06:59:05;12.87;;;6.73;;
82793;SDS011;72533;52.852;6.176;2024-01-27T07:01:31;12.27;;;4.73;;
82793;SDS011;72533;52.852;6.176;2024-01-27T07:03:56;12.47;;;4.63;;
82793;SDS011;72533;52.852;6.176;2024-01-27T07:06:21;14.80;;;6.80;;
82793;SDS011;72533;52.852;6.176;2024-01-27T07:08:46;10.60;;;5.83;;
82793;SDS011;72533;52.852;6.176;2024-01-27T07:11:12;17.13;;;5.13;;
82793;SDS011;72533;52.852;6.176;2024-01-27T07:13:37;16.37;;;8.23;;
82793;SDS011;72533;52.852;6.176;2024-01-27T07:16:02;15.23;;;6.67;;
82793;SDS011;72533;52.852;6.176;2024-01-27T07:18:27;16.07;;;5.20;;
82793;SDS011;72533;52.852;6.176;2024-01-27T07:20:54;14.57;;;6.45;;
82793;SDS011;72533;52.852;6.176;2024-01-27T07:23:19;14.35;;;7.35;;
82793;SDS011;72533;52.852;6.176;2024-01-27T07:25:45;15.97;;;7.37;;
82793;SDS011;72533;52.852;6.176;2024-01-27T07:28:10;15.07;;;8.13;;
82793;SDS011;72533;52.852;6.176;2024-01-27T07:30:36;14.33;;;7.03;;
82793;SDS011;72533;52.852;6.176;2024-01-27T07:33:02;25.13;;;6.78;;
82793;SDS011;72533;52.852;6.176;2024-01-27T07:35:27;15.73;;;9.07;;
82793;SDS011;72533;52.852;6.176;2024-01-27T07:37:53;12.38;;;6.45;;
82793;SDS011;72533;52.852;6.176;2024-01-27T07:40:18;11.18;;;7.07;;
82793;SDS011;72533;52.852;6.176;2024-01-27T07:42:44;16.23;;;9.80;;
82793;SDS011;72533;52.852;6.176;2024-01-27T07:45:09;13.07;;;7.33;;
82793;SDS011;72533;52.852;6.176;2024-01-27T07:47:34;15.83;;;8.47;;
82793;SDS011;72533;52.852;6.176;2024-01-27T07:49:59;10.73;;;6.33;;
82793;SDS011;72533;52.852;6.176;2024-01-27T07:52:24;15.63;;;9.17;;
82793;SDS011;72533;52.852;6.176;2024-01-27T07:54:50;11.40;;;7.07;;
82793;SDS011;72533;52.852;6.176;2024-01-27T07:57:15;19.03;;;9.80;;
82793;SDS011;72533;52.852;6.176;2024-01-27T07:59:40;10.82;;;7.13;;
82793;SDS011;72533;52.852;6.176;2024-01-27T08:02:05;17.83;;;8.67;;
82793;SDS011;72533;52.852;6.176;2024-01-27T08:04:30;13.20;;;9.03;;
82793;SDS011;72533;52.852;6.176;2024-01-27T08:06:56;16.93;;;9.60;;
82793;SDS011;72533;52.852;6.176;2024-01-27T08:09:21;17.20;;;9.70;;
82793;SDS011;72533;52.852;6.176;2024-01-27T08:11:46;15.83;;;8.07;;
82793;SDS011;72533;52.852;6.176;2024-01-27T08:14:16;14.43;;;9.13;;
82793;SDS011;72533;52.852;6.176;2024-01-27T08:16:41;11.30;;;8.03;;
82793;SDS011;72533;52.852;6.176;2024-01-27T08:19:06;15.70;;;10.07;;
82793;SDS011;72533;52.852;6.176;2024-01-27T08:21:32;15.40;;;9.07;;
82793;SDS011;72533;52.852;6.176;2024-01-27T08:23:57;15.77;;;8.80;;
82793;SDS011;72533;52.852;6.176;2024-01-27T08:26:22;11.03;;;6.57;;
82793;SDS011;72533;52.852;6.176;2024-01-27T08:28:47;12.27;;;9.17;;
82793;SDS011;72533;52.852;6.176;2024-01-27T08:31:12;17.90;;;9.40;;
82793;SDS011;72533;52.852;6.176;2024-01-27T08:33:37;21.07;;;9.67;;
82793;SDS011;72533;52.852;6.176;2024-01-27T08:36:03;14.23;;;9.00;;
82793;SDS011;72533;52.852;6.176;2024-01-27T08:38:28;14.35;;;9.18;;
82793;SDS011;72533;52.852;6.176;2024-01-27T08:40:53;17.30;;;9.33;;
82793;SDS011;72533;52.852;6.176;2024-01-27T08:43:18;15.90;;;7.83;;
82793;SDS011;72533;52.852;6.176;2024-01-27T08:45:44;16.92;;;9.85;;
82793;SDS011;72533;52.852;6.176;2024-01-27T08:48:09;17.77;;;9.80;;
82793;SDS011;72533;52.852;6.176;2024-01-27T08:50:36;25.63;;;11.65;;
82793;SDS011;72533;52.852;6.176;2024-01-27T08:53:01;15.77;;;9.43;;
82793;SDS011;72533;52.852;6.176;2024-01-27T08:55:27;19.67;;;10.75;;
82793;SDS011;72533;52.852;6.176;2024-01-27T08:57:52;18.75;;;10.57;;
82793;SDS011;72533;52.852;6.176;2024-01-27T09:00:17;19.08;;;9.15;;
82793;SDS011;72533;52.852;6.176;2024-01-27T09:02:43;18.00;;;10.50;;
82793;SDS011;72533;52.852;6.176;2024-01-27T09:05:08;15.93;;;9.45;;
82793;SDS011;72533;52.852;6.176;2024-01-27T09:07:33;14.13;;;9.00;;
82793;SDS011;72533;52.852;6.176;2024-01-27T09:09:59;14.15;;;8.57;;
82793;SDS011;72533;52.852;6.176;2024-01-27T09:12:24;11.27;;;7.83;;
82793;SDS011;72533;52.852;6.176;2024-01-27T09:14:49;15.97;;;7.50;;
82793;SDS011;72533;52.852;6.176;2024-01-27T09:17:14;9.60;;;7.43;;
82793;SDS011;72533;52.852;6.176;2024-01-27T09:19:40;9.45;;;5.13;;
82793;SDS011;72533;52.852;6.176;2024-01-27T09:22:05;12.60;;;7.00;;
82793;SDS011;72533;52.852;6.176;2024-01-27T09:24:30;19.87;;;9.13;;
82793;SDS011;72533;52.852;6.176;2024-01-27T09:26:55;16.40;;;6.83;;
82793;SDS011;72533;52.852;6.176;2024-01-27T09:29:21;15.37;;;7.77;;
82793;SDS011;72533;52.852;6.176;2024-01-27T09:31:46;8.13;;;5.90;;
82793;SDS011;72533;52.852;6.176;2024-01-27T09:34:11;16.07;;;9.50;;
82793;SDS011;72533;52.852;6.176;2024-01-27T09:36:36;15.50;;;6.50;;
82793;SDS011;72533;52.852;6.176;2024-01-27T09:39:02;15.10;;;6.47;;
82793;SDS011;72533;52.852;6.176;2024-01-27T09:41:29;10.02;;;6.25;;
82793;SDS011;72533;52.852;6.176;2024-01-27T09:43:55;13.02;;;8.07;;
82793;SDS011;72533;52.852;6.176;2024-01-27T09:46:21;12.43;;;7.47;;
82793;SDS011;72533;52.852;6.176;2024-01-27T09:48:46;21.50;;;6.93;;
82793;SDS011;72533;52.852;6.176;2024-01-27T09:51:12;14.32;;;6.32;;
82793;SDS011;72533;52.852;6.176;2024-01-27T09:53:37;10.53;;;7.67;;
82793;SDS011;72533;52.852;6.176;2024-01-27T09:56:02;15.97;;;10.40;;
82793;SDS011;72533;52.852;6.176;2024-01-27T10:00:56;9.32;;;6.82;;
82793;SDS011;72533;52.852;6.176;2024-01-27T10:03:23;18.60;;;9.35;;
82793;SDS011;72533;52.852;6.176;2024-01-27T10:05:48;13.40;;;9.20;;
82793;SDS011;72533;52.852;6.176;2024-01-27T10:08:13;15.07;;;7.83;;
82793;SDS011;72533;52.852;6.176;2024-01-27T10:10:39;9.67;;;5.43;;
82793;SDS011;72533;52.852;6.176;2024-01-27T10:13:04;8.70;;;4.63;;
82793;SDS011;72533;52.852;6.176;2024-01-27T10:15:29;8.33;;;4.80;;
82793;SDS011;72533;52.852;6.176;2024-01-27T10:18:04;7.70;;;5.20;;
82793;SDS011;72533;52.852;6.176;2024-01-27T10:20:30;15.00;;;7.40;;
82793;SDS011;72533;52.852;6.176;2024-01-27T10:22:55;11.33;;;4.57;;
82793;SDS011;72533;52.852;6.176;2024-01-27T10:25:20;15.03;;;6.60;;
82793;SDS011;72533;52.852;6.176;2024-01-27T10:27:45;10.43;;;4.70;;
82793;SDS011;72533;52.852;6.176;2024-01-27T10:30:16;9.15;;;7.50;;
82793;SDS011;72533;52.852;6.176;2024-01-27T10:32:42;10.95;;;7.88;;
82793;SDS011;72533;52.852;6.176;2024-01-27T10:35:07;9.63;;;4.60;;
82793;SDS011;72533;52.852;6.176;2024-01-27T10:37:36;14.68;;;7.75;;
82793;SDS011;72533;52.852;6.176;2024-01-27T10:40:05;10.95;;;6.88;;
82793;SDS011;72533;52.852;6.176;2024-01-27T10:42:32;7.75;;;4.13;;
82793;SDS011;72533;52.852;6.176;2024-01-27T10:44:59;8.40;;;4.55;;
82793;SDS011;72533;52.852;6.176;2024-01-27T10:47:28;13.18;;;5.75;;
82793;SDS011;72533;52.852;6.176;2024-01-27T10:49:57;11.45;;;7.15;;
82793;SDS011;72533;52.852;6.176;2024-01-27T10:52:28;12.57;;;6.03;;
82793;SDS011;72533;52.852;6.176;2024-01-27T10:55:03;7.47;;;4.50;;
82793;SDS011;72533;52.852;6.176;2024-01-27T10:57:29;10.70;;;4.10;;
82793;SDS011;72533;52.852;6.176;2024-01-27T10:59:54;6.43;;;4.18;;
82793;SDS011;72533;52.852;6.176;2024-01-27T11:02:20;9.70;;;4.60;;
82793;SDS011;72533;52.852;6.176;2024-01-27T11:04:47;10.30;;;4.88;;
82793;SDS011;72533;52.852;6.176;2024-01-27T11:07:13;11.57;;;6.90;;
82793;SDS011;72533;52.852;6.176;2024-01-27T11:09:38;8.40;;;5.03;;
82793;SDS011;72533;52.852;6.176;2024-01-27T11:12:04;18.83;;;4.78;;
82793;SDS011;72533;52.852;6.176;2024-01-27T11:14:30;15.90;;;4.80;;
82793;SDS011;72533;52.852;6.176;2024-01-27T11:16:58;15.77;;;6.00;;
82793;SDS011;72533;52.852;6.176;2024-01-27T11:19:24;11.23;;;5.93;;
82793;SDS011;72533;52.852;6.176;2024-01-27T11:22:02;11.97;;;6.17;;
82793;SDS011;72533;52.852;6.176;2024-01-27T11:24:28;12.30;;;6.15;;
82793;SDS011;72533;52.852;6.176;2024-01-27T11:27:05;11.43;;;6.03;;
82793;SDS011;72533;52.852;6.176;2024-01-27T11:29:31;14.05;;;6.00;;
82793;SDS011;72533;52.852;6.176;2024-01-27T11:32:00;14.27;;;5.25;;
82793;SDS011;72533;52.852;6.176;2024-01-27T11:34:26;11.60;;;5.28;;
82793;SDS011;72533;52.852;6.176;2024-01-27T11:36:52;7.70;;;4.23;;
82793;SDS011;72533;52.852;6.176;2024-01-27T11:39:23;11.40;;;5.07;;
82793;SDS011;72533;52.852;6.176;2024-01-27T11:41:49;14.07;;;5.82;;
82793;SDS011;72533;52.852;6.176;2024-01-27T11:44:15;14.93;;;6.27;;
82793;SDS011;72533;52.852;6.176;2024-01-27T11:46:40;12.75;;;4.80;;
82793;SDS011;72533;52.852;6.176;2024-01-27T11:49:06;12.00;;;5.00;;
82793;SDS011;72533;52.852;6.176;2024-01-27T11:51:31;8.18;;;4.45;;
82793;SDS011;72533;52.852;6.176;2024-01-27T11:53:56;11.50;;;4.60;;
82793;SDS011;72533;52.852;6.176;2024-01-27T11:56:21;13.00;;;4.47;;
82793;SDS011;72533;52.852;6.176;2024-01-27T11:58:48;17.27;;;6.00;;
82793;SDS011;72533;52.852;6.176;2024-01-27T12:01:13;8.35;;;4.07;;
82793;SDS011;72533;52.852;6.176;2024-01-27T12:03:39;8.32;;;2.97;;
82793;SDS011;72533;52.852;6.176;2024-01-27T12:06:04;8.18;;;5.32;;
82793;SDS011;72533;52.852;6.176;2024-01-27T12:08:31;7.13;;;4.57;;
82793;SDS011;72533;52.852;6.176;2024-01-27T12:10:56;8.80;;;3.57;;
82793;SDS011;72533;52.852;6.176;2024-01-27T12:13:21;10.20;;;4.40;;
82793;SDS011;72533;52.852;6.176;2024-01-27T12:15:46;9.07;;;3.92;;
82793;SDS011;72533;52.852;6.176;2024-01-27T12:18:13;8.95;;;3.80;;
82793;SDS011;72533;52.852;6.176;2024-01-27T12:20:38;8.30;;;5.70;;
82793;SDS011;72533;52.852;6.176;2024-01-27T12:23:04;13.77;;;4.35;;
82793;SDS011;72533;52.852;6.176;2024-01-27T12:25:29;8.15;;;4.10;;
82793;SDS011;72533;52.852;6.176;2024-01-27T12:27:54;8.50;;;4.17;;
82793;SDS011;72533;52.852;6.176;2024-01-27T12:30:20;14.37;;;4.90;;
82793;SDS011;72533;52.852;6.176;2024-01-27T12:32:46;9.57;;;4.13;;
82793;SDS011;72533;52.852;6.176;2024-01-27T12:35:11;8.95;;;4.78;;
82793;SDS011;72533;52.852;6.176;2024-01-27T12:37:37;9.73;;;5.15;;
82793;SDS011;72533;52.852;6.176;2024-01-27T12:40:03;8.63;;;3.27;;
82793;SDS011;72533;52.852;6.176;2024-01-27T12:42:40;7.45;;;3.00;;
82793;SDS011;72533;52.852;6.176;2024-01-27T12:45:05;12.00;;;4.23;;
82793;SDS011;72533;52.852;6.176;2024-01-27T12:47:31;11.15;;;4.65;;
82793;SDS011;72533;52.852;6.176;2024-01-27T12:49:56;11.07;;;6.30;;
82793;SDS011;72533;52.852;6.176;2024-01-27T12:52:21;11.20;;;5.60;;
82793;SDS011;72533;52.852;6.176;2024-01-27T12:54:48;11.18;;;5.13;;
82793;SDS011;72533;52.852;6.176;2024-01-27T12:57:13;14.93;;;5.80;;
82793;SDS011;72533;52.852;6.176;2024-01-27T12:59:38;14.53;;;5.53;;
82793;SDS011;72533;52.852;6.176;2024-01-27T13:02:04;7.23;;;3.67;;
82793;SDS011;72533;52.852;6.176;2024-01-27T13:04:29;14.77;;;4.70;;
82793;SDS011;72533;52.852;6.176;2024-01-27T13:06:54;10.10;;;3.87;;
82793;SDS011;72533;52.852;6.176;2024-01-27T13:09:19;12.10;;;4.85;;
82793;SDS011;72533;52.852;6.176;2024-01-27T13:11:45;12.05;;;6.30;;
82793;SDS011;72533;52.852;6.176;2024-01-27T13:14:10;12.73;;;4.37;;
82793;SDS011;72533;52.852;6.176;2024-01-27T13:16:37;11.38;;;5.45;;
82793;SDS011;72533;52.852;6.176;2024-01-27T13:19:02;13.03;;;4.73;;
82793;SDS011;72533;52.852;6.176;2024-01-27T13:21:28;17.47;;;5.57;;
82793;SDS011;72533;52.852;6.176;2024-01-27T13:23:53;15.77;;;5.07;;
82793;SDS011;72533;52.852;6.176;2024-01-27T13:26:18;11.37;;;5.70;;
82793;SDS011;72533;52.852;6.176;2024-01-27T13:28:43;11.43;;;5.20;;
82793;SDS011;72533;52.852;6.176;2024-01-27T13:31:09;9.85;;;3.88;;
82793;SDS011;72533;52.852;6.176;2024-01-27T13:33:34;11.27;;;3.87;;
82793;SDS011;72533;52.852;6.176;2024-01-27T13:36:00;11.32;;;5.45;;
82793;SDS011;72533;52.852;6.176;2024-01-27T13:38:25;10.43;;;3.70;;
82793;SDS011;72533;52.852;6.176;2024-01-27T13:40:51;9.13;;;3.55;;
82793;SDS011;72533;52.852;6.176;2024-01-27T13:43:17;15.38;;;5.25;;
82793;SDS011;72533;52.852;6.176;2024-01-27T13:45:42;11.27;;;5.30;;
82793;SDS011;72533;52.852;6.176;2024-01-27T13:48:07;12.03;;;3.70;;
82793;SDS011;72533;52.852;6.176;2024-01-27T13:50:32;8.37;;;4.43;;
82793;SDS011;72533;52.852;6.176;2024-01-27T13:52:58;10.73;;;4.97;;
82793;SDS011;72533;52.852;6.176;2024-01-27T13:55:23;9.83;;;4.53;;
82793;SDS011;72533;52.852;6.176;2024-01-27T13:57:48;10.82;;;5.80;;
82793;SDS011;72533;52.852;6.176;2024-01-27T14:00:14;9.02;;;4.53;;
82793;SDS011;72533;52.852;6.176;2024-01-27T14:02:41;10.00;;;4.30;;
82793;SDS011;72533;52.852;6.176;2024-01-27T14:05:07;6.70;;;3.10;;
82793;SDS011;72533;52.852;6.176;2024-01-27T14:07:32;10.40;;;3.00;;
82793;SDS011;72533;52.852;6.176;2024-01-27T14:09:58;12.52;;;4.13;;
82793;SDS011;72533;52.852;6.176;2024-01-27T14:12:23;8.00;;;3.37;;
82793;SDS011;72533;52.852;6.176;2024-01-27T14:14:49;7.43;;;3.73;;
82793;SDS011;72533;52.852;6.176;2024-01-27T14:17:14;10.32;;;4.07;;
82793;SDS011;72533;52.852;6.176;2024-01-27T14:19:39;17.40;;;5.72;;
82793;SDS011;72533;52.852;6.176;2024-01-27T14:22:05;12.98;;;4.13;;
82793;SDS011;72533;52.852;6.176;2024-01-27T14:24:31;10.02;;;3.55;;
82793;SDS011;72533;52.852;6.176;2024-01-27T14:26:58;19.77;;;7.38;;
82793;SDS011;72533;52.852;6.176;2024-01-27T14:29:23;9.07;;;3.63;;
82793;SDS011;72533;52.852;6.176;2024-01-27T14:31:48;15.93;;;4.00;;
82793;SDS011;72533;52.852;6.176;2024-01-27T14:34:13;10.93;;;4.63;;
82793;SDS011;72533;52.852;6.176;2024-01-27T14:36:39;11.15;;;5.40;;